Terminal Aerodrome Forecast
Issued by NWS Rapid City, SD

Home | Current Version | Previous Version | Text Only | Print | Product List | Glossary On
Versions: 1 2 3 4 5 6 7 8 9 10 11 12 13 14 15 16
081
FTUS43 KUNR 181720
TAFRAP
TAF
KRAP 181720Z 1818/1918 35022G32KT P6SM OVC050
     FM182200 35018G28KT 1SM -SN OVC015
     FM190100 01017G27KT 3/4SM -SN BLSN VV005
     FM191200 01015KT 1SM -SN BLSN OVC009=

USA.gov is the U.S. government's official web portal to all federal, state and local government web resources and services.